createdAt,value
2023-05-10T00:01:46.287Z,74.33
2023-05-10T00:04:14.922Z,74.23
2023-05-10T00:06:43.618Z,74.19
2023-05-10T00:09:12.041Z,74.61
2023-05-10T00:11:40.116Z,74.11
2023-05-10T00:14:08.295Z,74.28
2023-05-10T00:16:37.980Z,74.56
2023-05-10T00:19:06.218Z,74.44
2023-05-10T00:21:34.722Z,74.75
2023-05-10T00:24:03.133Z,74.19
2023-05-10T00:26:31.207Z,74.21
2023-05-10T00:28:59.952Z,73.67
2023-05-10T00:31:28.018Z,73.54
2023-05-10T00:33:58.188Z,73.64
2023-05-10T00:36:26.399Z,73.68
2023-05-10T00:38:54.668Z,74.10
2023-05-10T00:41:23.381Z,74.14
2023-05-10T00:43:51.954Z,74.47
2023-05-10T00:46:20.803Z,74.33
2023-05-10T00:48:49.847Z,74.28
2023-05-10T00:51:20.065Z,75.07
2023-05-10T00:53:48.977Z,75.22
2023-05-10T00:56:17.668Z,74.92
2023-05-10T00:58:46.067Z,74.74
2023-05-10T01:01:15.538Z,74.25
2023-05-10T01:03:44.628Z,74.70
2023-05-10T01:06:12.910Z,74.32
2023-05-10T01:08:43.166Z,74.74
2023-05-10T01:11:12.526Z,74.65
2023-05-10T01:13:44.510Z,74.75
2023-05-10T01:16:12.846Z,74.61
2023-05-10T01:18:43.560Z,74.66
2023-05-10T01:21:23.101Z,74.53
2023-05-10T01:24:40.318Z,74.73
2023-05-10T01:27:48.138Z,74.57
2023-05-10T01:30:47.201Z,74.95
2023-05-10T01:33:24.199Z,75.06
2023-05-10T01:36:00.002Z,74.78
2023-05-10T01:38:41.477Z,74.99
2023-05-10T01:41:19.628Z,75.09
2023-05-10T01:43:59.987Z,75.09
2023-05-10T01:46:36.625Z,75.09
2023-05-10T01:49:11.881Z,74.76
2023-05-10T01:51:47.236Z,75.20
2023-05-10T01:54:21.508Z,75.00
2023-05-10T01:57:10.086Z,75.01
2023-05-10T01:59:42.543Z,75.38
2023-05-10T02:02:14.631Z,75.28
2023-05-10T02:04:45.840Z,75.02
2023-05-10T02:07:16.360Z,75.25
2023-05-10T02:09:48.981Z,75.65
2023-05-10T02:12:20.221Z,75.52
2023-05-10T02:14:49.906Z,75.50
2023-05-10T02:17:19.409Z,75.08
2023-05-10T02:19:50.344Z,75.01
2023-05-10T02:22:20.542Z,75.46
2023-05-10T02:24:51.677Z,75.43
2023-05-10T02:27:22.895Z,75.21
2023-05-10T02:29:53.478Z,74.92
2023-05-10T02:32:23.711Z,75.55
2023-05-10T02:34:55.424Z,74.81
2023-05-10T02:37:24.912Z,74.88
2023-05-10T02:39:56.580Z,75.27
2023-05-10T02:42:28.621Z,75.60
2023-05-10T02:45:01.958Z,75.32
2023-05-10T02:47:31.432Z,75.85
2023-05-10T02:50:01.847Z,75.32
2023-05-10T02:52:41.246Z,75.51
2023-05-10T02:55:13.818Z,75.84
2023-05-10T02:57:51.526Z,75.94
2023-05-10T03:00:20.289Z,75.85
2023-05-10T03:02:48.458Z,75.31
2023-05-10T03:05:18.404Z,75.30
2023-05-10T03:07:47.719Z,75.10
2023-05-10T03:10:16.197Z,75.15
2023-05-10T03:13:04.780Z,74.77
2023-05-10T03:15:44.758Z,74.42
2023-05-10T03:18:18.202Z,74.47
2023-05-10T03:20:51.121Z,74.26
2023-05-10T03:23:29.035Z,74.49
2023-05-10T03:25:57.814Z,74.45
2023-05-10T03:28:28.928Z,74.50
2023-05-10T03:31:01.836Z,74.31
2023-05-10T03:33:31.778Z,74.21
2023-05-10T03:36:01.424Z,75.18
2023-05-10T03:38:30.559Z,74.53
2023-05-10T03:40:58.686Z,75.00
2023-05-10T03:43:26.681Z,74.71
2023-05-10T03:45:55.035Z,74.95
2023-05-10T03:48:23.022Z,74.35
2023-05-10T03:50:51.280Z,74.58
2023-05-10T03:53:21.143Z,74.38
2023-05-10T03:55:50.308Z,74.29
2023-05-10T03:58:19.123Z,74.27
2023-05-10T04:00:47.403Z,74.14
2023-05-10T04:03:16.572Z,74.47
2023-05-10T04:05:44.774Z,74.94
2023-05-10T04:08:16.005Z,74.80
2023-05-10T04:10:45.465Z,75.24
2023-05-10T04:13:13.397Z,74.74
2023-05-10T04:15:41.281Z,74.48
2023-05-10T04:18:09.175Z,74.21
2023-05-10T04:20:37.105Z,73.90
2023-05-10T04:23:05.054Z,73.02
2023-05-10T04:25:36.040Z,72.24
2023-05-10T04:28:05.652Z,72.25
2023-05-10T04:30:33.612Z,72.19
2023-05-10T04:33:02.783Z,71.41
2023-05-10T04:35:31.468Z,68.78
2023-05-10T04:37:59.416Z,68.68
2023-05-10T04:40:28.157Z,68.65
2023-05-10T04:42:56.664Z,69.58
2023-05-10T04:45:26.220Z,70.10
2023-05-10T04:47:54.516Z,69.66
2023-05-10T04:50:22.668Z,69.73
2023-05-10T04:52:51.119Z,70.05
2023-05-10T04:55:21.473Z,70.00
2023-05-10T04:57:53.260Z,70.75
2023-05-10T05:00:22.685Z,70.67
2023-05-10T05:02:52.695Z,71.70
2023-05-10T05:05:20.797Z,72.38
2023-05-10T05:07:49.540Z,71.77
2023-05-10T05:10:18.019Z,71.94
2023-05-10T05:12:46.433Z,70.56
2023-05-10T05:15:14.528Z,71.05
2023-05-10T05:17:42.770Z,71.29
2023-05-10T05:20:14.123Z,70.92
2023-05-10T05:22:42.371Z,71.41
2023-05-10T05:25:12.512Z,70.78
2023-05-10T05:27:40.565Z,69.89
2023-05-10T05:30:09.803Z,69.95
2023-05-10T05:32:38.293Z,68.49
2023-05-10T05:35:07.291Z,68.48
2023-05-10T05:37:38.279Z,68.45
2023-05-10T05:40:07.706Z,69.06
2023-05-10T05:42:35.736Z,68.95
2023-05-10T05:45:03.705Z,68.73
2023-05-10T05:47:32.888Z,69.23
2023-05-10T05:50:01.091Z,69.95
2023-05-10T05:52:29.541Z,70.82
2023-05-10T05:54:58.892Z,71.35
2023-05-10T05:57:28.397Z,71.40
2023-05-10T05:59:56.569Z,72.24
2023-05-10T06:02:24.966Z,72.62
2023-05-10T06:04:53.467Z,72.06
2023-05-10T06:07:23.363Z,72.34
2023-05-10T06:09:51.427Z,72.52
2023-05-10T06:12:21.055Z,72.15
2023-05-10T06:14:50.186Z,71.88
2023-05-10T06:17:18.529Z,71.65
2023-05-10T06:19:46.708Z,70.64
2023-05-10T06:22:14.984Z,70.35
2023-05-10T06:24:43.038Z,70.24
2023-05-10T06:27:12.261Z,69.87
2023-05-10T06:29:41.726Z,69.43
2023-05-10T06:32:10.330Z,69.50
2023-05-10T06:34:38.545Z,68.67
2023-05-10T06:37:07.403Z,67.78
2023-05-10T06:39:35.484Z,67.64
2023-05-10T06:42:03.827Z,66.49
2023-05-10T06:44:34.265Z,66.29
2023-05-10T06:47:04.080Z,65.80
2023-05-10T06:49:32.025Z,65.27
2023-05-10T06:52:00.161Z,64.94
2023-05-10T06:54:28.107Z,65.08
2023-05-10T06:56:56.419Z,63.40
2023-05-10T06:59:25.767Z,62.63
2023-05-10T07:01:54.957Z,60.76
2023-05-10T07:04:24.541Z,60.67
2023-05-10T07:07:00.285Z,60.39
2023-05-10T07:09:28.276Z,59.51
2023-05-10T07:11:57.580Z,58.74
2023-05-10T07:14:25.778Z,59.13
2023-05-10T07:16:54.137Z,58.49
2023-05-10T07:19:22.612Z,58.97
2023-05-10T07:21:52.423Z,58.94
2023-05-10T07:24:20.495Z,59.30
2023-05-10T07:26:48.531Z,59.13
2023-05-10T07:29:16.577Z,58.55
2023-05-10T07:31:44.751Z,57.91
2023-05-10T07:34:12.944Z,58.63
2023-05-10T07:36:40.957Z,58.91
2023-05-10T07:39:11.496Z,58.45
2023-05-10T07:41:40.957Z,58.84
2023-05-10T07:44:09.191Z,58.83
2023-05-10T07:46:37.378Z,57.54
2023-05-10T07:49:06.488Z,57.63
2023-05-10T07:51:53.965Z,58.06
2023-05-10T07:54:23.742Z,57.21
2023-05-10T07:56:53.053Z,57.23
2023-05-10T07:59:21.453Z,56.82
2023-05-10T08:01:49.402Z,56.67
2023-05-10T08:04:17.349Z,57.10
2023-05-10T08:06:45.698Z,56.33
2023-05-10T08:09:14.298Z,55.90
2023-05-10T08:11:43.679Z,56.28
2023-05-10T08:14:11.779Z,56.39
2023-05-10T08:16:39.837Z,56.88
2023-05-10T08:19:08.036Z,56.79
2023-05-10T08:21:36.832Z,57.35
2023-05-10T08:24:05.249Z,57.24
2023-05-10T08:26:35.595Z,56.88
2023-05-10T08:29:05.068Z,56.60
2023-05-10T08:31:33.332Z,56.03
2023-05-10T08:34:01.521Z,54.76
2023-05-10T08:36:30.954Z,54.56
2023-05-10T08:38:59.071Z,55.21
2023-05-10T08:41:36.570Z,53.78
2023-05-10T08:44:07.149Z,51.39
2023-05-10T08:46:39.782Z,51.03
2023-05-10T08:49:09.733Z,50.26
2023-05-10T08:51:43.815Z,51.40
2023-05-10T08:54:13.757Z,51.12
2023-05-10T08:56:41.841Z,51.73
2023-05-10T08:59:12.530Z,52.83
2023-05-10T09:01:45.355Z,53.13
2023-05-10T09:04:14.033Z,53.86
2023-05-10T09:06:42.139Z,54.04
2023-05-10T09:09:10.265Z,53.41
2023-05-10T09:11:38.965Z,53.18
2023-05-10T09:14:07.591Z,52.40
2023-05-10T09:16:37.246Z,52.13
2023-05-10T09:19:05.729Z,51.70
2023-05-10T09:21:33.984Z,50.23
2023-05-10T09:24:05.487Z,50.87
2023-05-10T09:26:34.346Z,51.02
2023-05-10T09:29:03.664Z,51.30
2023-05-10T09:31:52.151Z,52.36
2023-05-10T09:34:22.193Z,52.33
2023-05-10T09:36:58.658Z,52.50
2023-05-10T09:39:33.983Z,50.52
2023-05-10T09:42:05.751Z,50.19
2023-05-10T09:44:34.504Z,49.47
2023-05-10T09:47:04.688Z,48.68
2023-05-10T09:49:34.362Z,47.94
2023-05-10T09:52:04.521Z,47.93
2023-05-10T09:54:33.187Z,48.14
2023-05-10T09:57:01.637Z,47.78
2023-05-10T09:59:31.541Z,47.05
2023-05-10T10:02:01.890Z,45.82
2023-05-10T10:04:31.705Z,45.35
2023-05-10T10:07:06.197Z,44.79
2023-05-10T10:09:36.177Z,45.37
2023-05-10T10:12:05.825Z,45.47
2023-05-10T10:14:35.161Z,43.29
2023-05-10T10:19:37.651Z,42.27
2023-05-10T10:22:06.857Z,41.27
2023-05-10T10:24:36.490Z,42.31
2023-05-10T10:27:24.058Z,43.17
2023-05-10T10:30:06.895Z,44.61
2023-05-10T10:32:53.738Z,46.87
2023-05-10T10:35:23.761Z,48.79
2023-05-10T10:37:53.258Z,48.80
2023-05-10T10:40:29.015Z,50.04
2023-05-10T10:42:58.621Z,51.22
2023-05-10T10:45:28.493Z,51.72
2023-05-10T10:48:23.927Z,52.76
2023-05-10T10:50:59.777Z,53.27
2023-05-10T10:53:29.552Z,51.97
2023-05-10T10:56:08.966Z,52.40
2023-05-10T10:58:38.767Z,51.31
2023-05-10T11:01:15.050Z,51.70
2023-05-10T11:04:17.259Z,52.29
2023-05-10T11:06:46.608Z,52.24
2023-05-10T11:09:15.524Z,52.99
2023-05-10T11:11:56.129Z,52.24
2023-05-10T11:14:24.620Z,52.38
2023-05-10T11:16:53.973Z,51.94
2023-05-10T11:19:22.084Z,52.37
2023-05-10T11:21:55.122Z,52.74
2023-05-10T11:24:29.139Z,53.58
2023-05-10T11:26:58.171Z,54.04
2023-05-10T11:29:27.812Z,54.67
2023-05-10T11:32:00.432Z,55.62
2023-05-10T11:34:31.268Z,56.25
2023-05-10T11:37:01.214Z,56.26
2023-05-10T11:39:31.137Z,58.62
2023-05-10T11:42:00.184Z,59.55
2023-05-10T11:44:33.182Z,60.88
2023-05-10T11:47:02.323Z,62.17
2023-05-10T11:49:30.625Z,62.59
2023-05-10T11:52:08.284Z,62.86
2023-05-10T11:54:36.982Z,63.04
2023-05-10T11:57:05.287Z,64.28
2023-05-10T11:59:34.325Z,64.87
2023-05-10T12:02:03.110Z,65.79
2023-05-10T12:04:32.155Z,65.05
2023-05-10T12:07:00.417Z,64.96
2023-05-10T12:09:42.476Z,65.34
2023-05-10T12:12:12.681Z,65.62
2023-05-10T12:14:40.698Z,65.98
2023-05-10T12:17:13.300Z,66.31
2023-05-10T12:19:42.110Z,66.29
2023-05-10T12:22:10.431Z,66.06
2023-05-10T12:24:40.505Z,66.79
2023-05-10T12:27:13.473Z,67.45
2023-05-10T12:29:45.383Z,67.71
2023-05-10T12:32:13.692Z,67.67
2023-05-10T12:34:41.784Z,66.65
2023-05-10T12:37:09.685Z,67.44
2023-05-10T12:39:47.182Z,67.47
2023-05-10T12:42:15.131Z,66.70
2023-05-10T12:44:43.302Z,67.29
2023-05-10T12:47:11.706Z,67.56
2023-05-10T12:49:40.178Z,67.08
2023-05-10T12:52:08.177Z,67.03
2023-05-10T12:54:36.526Z,66.84
2023-05-10T12:57:06.425Z,66.81
2023-05-10T12:59:35.919Z,67.01
2023-05-10T13:02:05.441Z,65.96
2023-05-10T13:04:33.955Z,66.63
2023-05-10T13:07:02.044Z,66.74
2023-05-10T13:09:30.534Z,66.72
2023-05-10T13:11:58.780Z,67.23
2023-05-10T13:14:28.855Z,67.07
2023-05-10T13:16:57.965Z,67.98
2023-05-10T13:19:26.352Z,67.41
2023-05-10T13:21:54.505Z,66.02
2023-05-10T13:24:23.982Z,67.01
2023-05-10T13:26:52.440Z,68.06
2023-05-10T13:29:22.013Z,67.81
2023-05-10T13:31:51.962Z,68.77
2023-05-10T13:34:21.457Z,68.88
2023-05-10T13:36:50.606Z,69.09
2023-05-10T13:39:19.386Z,69.41
2023-05-10T13:41:47.569Z,68.89
2023-05-10T13:44:17.322Z,69.55
2023-05-10T13:46:45.711Z,70.09
2023-05-10T13:49:15.221Z,69.91
2023-05-10T13:51:43.686Z,70.55
2023-05-10T13:54:13.559Z,70.56
2023-05-10T13:56:42.100Z,70.82
2023-05-10T13:59:10.225Z,70.99
2023-05-10T14:01:39.286Z,71.27
2023-05-10T14:04:07.334Z,71.12
2023-05-10T14:06:37.329Z,71.67
2023-05-10T14:09:08.494Z,71.42
2023-05-10T14:11:40.152Z,71.97
2023-05-10T14:14:08.648Z,71.74
2023-05-10T14:16:36.962Z,70.92
2023-05-10T14:19:08.123Z,70.91
2023-05-10T14:21:37.614Z,70.45
2023-05-10T14:24:07.955Z,68.76
2023-05-10T14:26:36.158Z,68.73
2023-05-10T14:29:04.245Z,69.55
2023-05-10T14:31:32.315Z,67.69
2023-05-10T14:34:00.635Z,67.24
2023-05-10T14:36:30.732Z,67.22
2023-05-10T14:39:00.584Z,63.68
2023-05-10T14:41:28.585Z,61.76
2023-05-10T14:43:56.660Z,60.50
2023-05-10T14:46:25.050Z,60.22
2023-05-10T14:48:53.617Z,60.66
2023-05-10T14:51:22.765Z,61.51
2023-05-10T14:53:51.481Z,62.50
2023-05-10T14:56:27.134Z,62.57
2023-05-10T14:58:55.148Z,62.68
2023-05-10T15:01:23.688Z,62.58
2023-05-10T15:03:52.809Z,62.39
2023-05-10T15:06:27.016Z,62.72
2023-05-10T15:08:55.147Z,63.28
2023-05-10T15:11:28.266Z,62.30
2023-05-10T15:13:56.553Z,62.83
2023-05-10T15:16:25.325Z,63.38
2023-05-10T15:18:53.483Z,62.96
2023-05-10T15:21:22.507Z,62.73
2023-05-10T15:23:50.535Z,62.79
2023-05-10T15:26:18.706Z,62.09
2023-05-10T15:28:48.200Z,62.19
2023-05-10T15:31:16.982Z,62.25
2023-05-10T15:33:44.981Z,61.88
2023-05-10T15:36:13.634Z,61.84
2023-05-10T15:38:42.112Z,62.10
2023-05-10T15:41:10.117Z,60.92
2023-05-10T15:43:38.025Z,61.09
2023-05-10T15:46:08.136Z,61.26
2023-05-10T15:48:36.523Z,61.08
2023-05-10T15:51:04.890Z,60.84
2023-05-10T15:53:32.929Z,61.50
2023-05-10T15:56:00.854Z,62.07
2023-05-10T15:58:28.919Z,63.61
2023-05-10T16:00:57.816Z,64.87
2023-05-10T16:03:27.515Z,65.87
2023-05-10T16:05:55.741Z,65.79
2023-05-10T16:08:23.818Z,66.45
2023-05-10T16:10:53.732Z,67.12
2023-05-10T16:13:21.902Z,67.14
2023-05-10T16:15:49.974Z,68.29
2023-05-10T16:18:18.318Z,68.20
2023-05-10T16:20:48.571Z,69.24
2023-05-10T16:23:16.814Z,68.52
2023-05-10T16:25:45.482Z,69.06
2023-05-10T16:28:13.893Z,70.18
2023-05-10T16:30:42.340Z,69.38
2023-05-10T16:33:10.636Z,70.03
2023-05-10T16:35:39.107Z,70.10
2023-05-10T16:38:08.829Z,70.39
2023-05-10T16:40:37.091Z,70.90
2023-05-10T16:43:05.190Z,68.62
2023-05-10T16:45:33.365Z,67.95
2023-05-10T16:48:01.696Z,67.70
2023-05-10T16:50:29.718Z,65.94
2023-05-10T16:52:57.907Z,67.35
2023-05-10T16:55:27.593Z,68.42
2023-05-10T16:57:59.678Z,68.25
2023-05-10T17:00:27.894Z,68.70
2023-05-10T17:02:56.394Z,68.98
2023-05-10T17:05:24.851Z,68.58
2023-05-10T17:07:53.144Z,67.83
2023-05-10T17:10:23.431Z,67.62
2023-05-10T17:12:53.873Z,68.13
2023-05-10T17:15:22.220Z,68.72
2023-05-10T17:17:50.243Z,68.47
2023-05-10T17:20:18.573Z,68.55
2023-05-10T17:22:46.652Z,68.80
2023-05-10T17:25:15.321Z,70.01
2023-05-10T17:27:43.563Z,70.49
2023-05-10T17:30:15.593Z,70.33
2023-05-10T17:32:44.068Z,71.29
2023-05-10T17:35:12.484Z,70.35
2023-05-10T17:37:41.522Z,70.35
2023-05-10T17:40:12.271Z,70.51
2023-05-10T17:42:40.237Z,70.28
2023-05-10T17:45:09.560Z,70.98
2023-05-10T17:47:40.552Z,70.60
2023-05-10T17:50:10.436Z,70.59
2023-05-10T17:52:38.487Z,70.19
2023-05-10T17:55:09.504Z,70.47
2023-05-10T17:57:38.769Z,71.87
2023-05-10T18:00:09.481Z,71.78
2023-05-10T18:02:39.005Z,72.25
2023-05-10T18:05:08.627Z,72.08
2023-05-10T18:07:37.279Z,71.91
2023-05-10T18:10:08.385Z,72.39
2023-05-10T18:12:37.572Z,71.79
2023-05-10T18:15:12.061Z,71.97
2023-05-10T18:17:41.577Z,71.96
2023-05-10T18:20:13.173Z,71.80
2023-05-10T18:22:41.335Z,71.18
2023-05-10T18:25:10.462Z,71.24
2023-05-10T18:27:38.641Z,71.73
2023-05-10T18:30:10.070Z,72.56
2023-05-10T18:32:38.663Z,72.02
2023-05-10T18:35:09.880Z,72.10
2023-05-10T18:37:39.063Z,72.11
2023-05-10T18:40:10.759Z,72.04
2023-05-10T18:42:39.861Z,71.25
2023-05-10T18:45:09.628Z,71.61
2023-05-10T18:47:37.869Z,72.03
2023-05-10T18:50:06.820Z,71.80
2023-05-10T18:52:37.183Z,71.59
2023-05-10T18:55:06.065Z,71.66
2023-05-10T18:57:39.632Z,70.98
2023-05-10T19:00:10.587Z,71.43
2023-05-10T19:02:38.956Z,70.85
2023-05-10T19:05:08.730Z,72.05
2023-05-10T19:07:38.663Z,71.79
2023-05-10T19:10:08.074Z,71.27
2023-05-10T19:12:37.531Z,71.65
2023-05-10T19:15:06.437Z,71.80
2023-05-10T19:17:36.407Z,71.99
2023-05-10T19:20:05.545Z,72.46
2023-05-10T19:22:47.221Z,72.04
2023-05-10T19:25:29.286Z,72.23
2023-05-10T19:27:58.629Z,72.72
2023-05-10T19:30:30.503Z,72.89
2023-05-10T19:32:59.111Z,73.67
2023-05-10T19:35:27.384Z,73.42
2023-05-10T19:37:55.884Z,72.94
2023-05-10T19:40:25.595Z,73.00
2023-05-10T19:42:57.126Z,72.82
2023-05-10T19:45:25.435Z,73.20
2023-05-10T19:47:54.150Z,72.95
2023-05-10T19:50:22.467Z,73.09
2023-05-10T19:52:50.621Z,73.29
2023-05-10T19:55:29.508Z,72.57
2023-05-10T19:58:00.735Z,73.49
2023-05-10T20:00:33.014Z,73.33
2023-05-10T20:03:03.119Z,73.70
2023-05-10T20:05:31.871Z,73.59
2023-05-10T20:08:00.115Z,73.18
2023-05-10T20:10:30.232Z,73.49
2023-05-10T20:13:00.565Z,73.08
2023-05-10T20:15:30.420Z,73.12
2023-05-10T20:17:58.477Z,73.39
2023-05-10T20:20:27.238Z,73.61
2023-05-10T20:22:55.164Z,73.66
2023-05-10T20:25:23.748Z,73.43
2023-05-10T20:27:53.270Z,73.36
2023-05-10T20:30:24.181Z,73.91
2023-05-10T20:32:52.453Z,74.38
2023-05-10T20:35:22.450Z,74.12
2023-05-10T20:37:50.434Z,74.44
2023-05-10T20:40:19.061Z,74.13
2023-05-10T20:42:47.923Z,73.03
2023-05-10T20:45:18.021Z,73.69
2023-05-10T20:47:45.930Z,73.67
2023-05-10T20:50:14.088Z,73.86
2023-05-10T20:52:42.088Z,74.38
2023-05-10T20:55:10.929Z,74.25
2023-05-10T20:57:39.263Z,74.10
2023-05-10T21:00:09.531Z,73.97
2023-05-10T21:02:39.423Z,74.48
2023-05-10T21:05:08.895Z,74.36
2023-05-10T21:07:36.899Z,74.04
2023-05-10T21:10:05.876Z,73.67
2023-05-10T21:12:33.994Z,73.82
2023-05-10T21:15:01.988Z,73.89
2023-05-10T21:17:30.359Z,73.47
2023-05-10T21:19:59.799Z,73.26
2023-05-10T21:22:28.400Z,73.54
2023-05-10T21:24:56.409Z,73.80
2023-05-10T21:27:24.618Z,73.51
2023-05-10T21:29:53.133Z,73.62
2023-05-10T21:32:21.862Z,73.56
2023-05-10T21:34:50.048Z,73.70
2023-05-10T21:37:19.611Z,73.38
2023-05-10T21:39:47.736Z,73.38
2023-05-10T21:42:16.986Z,73.31
2023-05-10T21:44:45.285Z,73.54
2023-05-10T21:47:13.347Z,73.62
2023-05-10T21:49:41.312Z,73.74
2023-05-10T21:52:09.305Z,73.83
2023-05-10T21:54:38.939Z,73.94
2023-05-10T21:57:06.941Z,73.74
2023-05-10T21:59:35.228Z,73.52
2023-05-10T22:02:03.586Z,73.78
2023-05-10T22:04:31.615Z,73.96
2023-05-10T22:07:00.472Z,74.00
2023-05-10T22:09:28.342Z,74.04
2023-05-10T22:11:57.857Z,73.70
2023-05-10T22:14:26.022Z,74.19
2023-05-10T22:16:54.020Z,74.45
2023-05-10T22:19:22.573Z,74.41
2023-05-10T22:21:51.039Z,74.17
2023-05-10T22:24:19.188Z,74.37
2023-05-10T22:26:47.398Z,74.51
2023-05-10T22:29:16.941Z,74.60
2023-05-10T22:31:45.096Z,74.83
2023-05-10T22:34:13.452Z,75.25
2023-05-10T22:36:41.780Z,74.92
2023-05-10T22:39:09.717Z,75.75
2023-05-10T22:41:38.094Z,76.26
2023-05-10T22:44:06.081Z,76.34
2023-05-10T22:46:37.094Z,76.18
2023-05-10T22:49:05.545Z,75.93
2023-05-10T22:51:33.790Z,76.34
2023-05-10T22:54:02.310Z,76.36
2023-05-10T22:56:30.863Z,76.27
2023-05-10T22:58:59.131Z,75.73
2023-05-10T23:01:27.676Z,76.41
2023-05-10T23:03:57.598Z,76.09
2023-05-10T23:06:27.336Z,76.46
2023-05-10T23:08:55.673Z,76.80
2023-05-10T23:11:24.077Z,76.54
2023-05-10T23:13:52.094Z,75.66
2023-05-10T23:16:20.038Z,76.09
2023-05-10T23:18:48.365Z,76.92
2023-05-10T23:21:17.953Z,76.58
2023-05-10T23:23:46.187Z,76.10
2023-05-10T23:26:14.420Z,75.84
2023-05-10T23:28:42.549Z,76.26
2023-05-10T23:31:10.967Z,76.43
2023-05-10T23:33:39.142Z,76.32
2023-05-10T23:36:07.656Z,76.60
2023-05-10T23:38:37.110Z,76.34
2023-05-10T23:41:06.487Z,76.20
2023-05-10T23:43:34.400Z,75.65
2023-05-10T23:46:02.502Z,75.93
2023-05-10T23:48:30.778Z,76.34
2023-05-10T23:50:58.757Z,76.51
2023-05-10T23:53:26.837Z,76.25
2023-05-10T23:55:56.556Z,76.89
2023-05-10T23:58:24.664Z,76.21
